Time;durP1;ratioP1;P1;durP2;ratioP2;P2;SDS_P1;SDS_P2;PMS_P1;PMS_P2;Temp;Humidity;BMP_temperature;BMP_pressure;BME280_temperature;BME280_humidity;BME280_pressure;Samples;Min_cycle;Max_cycle;Signal;HPM_P1;HPM_P2
2021/08/04 00:01:30;;;;;;;3.00;2.20;;;16.20;66.30;;;15.18;71.12;97684.28;4986252;28;20438;-85
2021/08/04 00:03:58;;;;;;;2.60;2.20;;;16.10;66.20;;;15.20;71.26;97699.25;4966310;28;20525;-85
2021/08/04 00:06:27;;;;;;;2.17;2.00;;;16.10;66.50;;;15.09;71.40;97692.88;4967192;28;20603;-85
2021/08/04 00:08:54;;;;;;;3.30;2.13;;;16.10;66.80;;;14.92;71.37;97664.91;4965380;28;20462;-85
2021/08/04 00:11:22;;;;;;;2.13;1.93;;;16.10;66.80;;;15.17;71.51;97704.38;4987967;28;20458;-84
2021/08/04 00:13:51;;;;;;;2.00;1.90;;;16.10;67.10;;;15.15;71.60;97707.34;4984123;28;20558;-84
2021/08/04 00:16:22;;;;;;;2.63;2.43;;;16.10;67.20;;;15.00;71.74;97689.75;4945530;29;20492;-85
2021/08/04 00:18:50;;;;;;;2.17;2.00;;;16.10;67.40;;;14.99;72.10;97685.41;4976821;28;20449;-84
2021/08/04 00:21:17;;;;;;;1.90;1.80;;;16.00;67.70;;;15.14;72.03;97713.88;4958421;28;20522;-85
2021/08/04 00:23:44;;;;;;;2.60;2.40;;;16.00;68.00;;;14.99;72.26;97688.13;4968604;28;20481;-84
2021/08/04 00:26:12;;;;;;;2.60;2.40;;;16.10;68.10;;;15.15;72.09;97720.97;4980296;28;20553;-85
2021/08/04 00:28:39;;;;;;;4.57;2.87;;;16.10;68.20;;;15.02;72.21;97703.94;4982209;28;20552;-84
2021/08/04 00:31:06;;;;;;;2.80;2.60;;;16.10;68.40;;;15.12;71.97;97710.59;4977271;28;20484;-85
2021/08/04 00:33:34;;;;;;;3.47;3.10;;;16.10;68.30;;;15.21;72.16;97705.53;4965867;28;20464;-85
2021/08/04 00:36:01;;;;;;;2.80;2.60;;;16.10;68.50;;;15.23;72.30;97717.78;4980691;28;20477;-86
2021/08/04 00:38:30;;;;;;;3.57;2.83;;;16.10;68.50;;;15.09;72.29;97694.75;4978457;28;21081;-85
2021/08/04 00:40:57;;;;;;;2.97;2.77;;;16.10;68.70;;;15.05;72.37;97693.63;4974104;28;20492;-84
2021/08/04 00:43:25;;;;;;;2.90;2.50;;;16.10;68.60;;;15.20;72.73;97721.00;4975208;28;20464;-85
2021/08/04 00:45:52;;;;;;;3.87;2.60;;;16.20;68.90;;;15.24;72.55;97718.63;4983848;28;20500;-85
2021/08/04 00:48:19;;;;;;;2.40;2.20;;;16.10;69.20;;;15.12;72.38;97702.44;4958097;28;20459;-86
2021/08/04 00:50:48;;;;;;;2.53;2.10;;;16.10;69.30;;;15.16;73.12;97717.16;4978848;28;20491;-85
2021/08/04 00:53:21;;;;;;;2.60;2.40;;;16.10;69.40;;;15.08;72.75;97712.16;4993733;28;20452;-84
2021/08/04 00:55:49;;;;;;;4.00;3.00;;;16.10;69.60;;;15.04;73.00;97706.41;4978974;28;20520;-84
2021/08/04 00:58:17;;;;;;;3.83;2.40;;;16.00;70.20;;;14.97;73.09;97700.31;4977475;28;20509;-84
2021/08/04 01:00:51;;;;;;;2.57;2.33;;;16.00;70.20;;;14.67;73.36;97658.00;4990167;28;20456;-85
2021/08/04 01:03:20;;;;;;;2.50;2.30;;;16.00;70.50;;;14.96;73.75;97710.38;4981959;28;20488;-85
2021/08/04 01:05:55;;;;;;;2.37;2.27;;;16.00;70.80;;;14.95;73.77;97705.19;4942974;28;20528;-84
2021/08/04 01:08:31;;;;;;;2.50;2.30;;;15.90;71.20;;;14.94;73.71;97707.09;4981795;28;20476;-85
2021/08/04 01:11:00;;;;;;;2.87;2.67;;;15.90;71.40;;;15.04;73.79;97727.34;4981771;28;20520;-85
2021/08/04 01:13:30;;;;;;;2.90;2.70;;;15.90;71.40;;;14.86;73.96;97700.19;4978735;28;20573;-86
2021/08/04 01:16:05;;;;;;;3.00;2.80;;;16.00;71.80;;;15.00;74.06;97727.84;4968358;28;20525;-84
2021/08/04 01:18:40;;;;;;;2.70;2.20;;;15.90;72.00;;;14.99;74.83;97728.91;4976730;28;20528;-85
2021/08/04 01:21:12;;;;;;;2.07;1.87;;;15.90;72.40;;;14.77;74.71;97698.13;4967568;28;20458;-84
2021/08/04 01:23:45;;;;;;;2.63;2.43;;;15.90;72.80;;;14.97;74.75;97722.91;4984757;28;20538;-85
2021/08/04 01:26:30;;;;;;;2.60;2.40;;;15.90;72.80;;;14.87;74.61;97712.72;4969920;28;20460;-85
2021/08/04 01:29:01;;;;;;;3.13;2.83;;;15.90;73.10;;;14.94;74.65;97726.16;4972192;28;20997;-84
2021/08/04 01:31:32;;;;;;;3.33;2.80;;;15.90;73.30;;;14.62;74.65;97677.78;4973696;28;20959;-85
2021/08/04 01:34:00;;;;;;;3.13;2.57;;;15.90;73.60;;;14.94;75.00;97728.03;4959469;28;20978;-84
2021/08/04 01:36:29;;;;;;;3.30;2.90;;;15.90;73.80;;;14.93;74.96;97727.19;4961250;28;20492;-84
2021/08/04 01:38:59;;;;;;;2.30;2.20;;;15.90;74.20;;;14.85;74.94;97720.28;4973772;28;20453;-85
2021/08/04 01:41:29;;;;;;;2.57;2.37;;;15.90;74.30;;;14.93;75.37;97735.34;4987161;28;20586;-84
2021/08/04 01:43:58;;;;;;;2.80;2.33;;;15.90;74.80;;;14.70;75.62;97693.69;4982272;28;20468;-84
2021/08/04 01:46:25;;;;;;;4.70;2.67;;;15.90;75.10;;;14.92;75.40;97728.25;4970973;28;20525;-85
2021/08/04 01:48:59;;;;;;;2.83;2.63;;;15.80;75.00;;;14.90;76.12;97727.69;4963749;28;20458;-84
2021/08/04 01:51:27;;;;;;;2.63;2.43;;;15.80;75.80;;;14.82;75.47;97714.53;4987623;28;20485;-85
2021/08/04 01:53:56;;;;;;;2.43;2.23;;;15.80;75.90;;;14.85;75.80;97719.47;4973147;28;21042;-85
2021/08/04 01:56:25;;;;;;;3.13;2.47;;;15.80;76.00;;;14.83;75.90;97724.34;4990360;28;20480;-85
2021/08/04 01:58:55;;;;;;;2.63;2.40;;;15.80;76.40;;;14.81;75.53;97719.16;4995314;28;20493;-85
2021/08/04 02:01:25;;;;;;;2.83;2.63;;;15.80;76.30;;;14.70;75.96;97711.88;4973509;28;20452;-85
2021/08/04 02:03:52;;;;;;;2.27;2.13;;;15.80;76.90;;;14.21;75.77;97639.16;4967789;28;20829;-84
2021/08/04 02:06:25;;;;;;;2.33;2.13;;;15.70;76.40;;;14.78;76.73;97729.69;4975317;28;20450;-85
2021/08/04 02:09:02;;;;;;;2.60;2.40;;;15.70;77.40;;;14.61;76.14;97692.44;4977609;28;20456;-85
2021/08/04 02:11:53;;;;;;;2.37;2.17;;;15.70;77.00;;;14.77;75.88;97725.31;4980420;28;20448;-85
2021/08/04 02:14:29;;;;;;;3.03;2.40;;;15.70;77.10;;;14.72;75.86;97721.47;4976420;28;20438;-85
2021/08/04 02:17:03;;;;;;;7.23;2.10;;;15.60;76.90;;;14.56;75.93;97695.94;4979905;28;20812;-86
2021/08/04 02:19:41;;;;;;;2.63;2.43;;;15.70;77.10;;;14.76;75.74;97727.25;4974251;28;20953;-85
2021/08/04 02:22:16;;;;;;;2.57;2.07;;;15.70;77.30;;;14.72;75.94;97720.66;4982855;28;20461;-85
2021/08/04 02:25:01;;;;;;;4.40;2.30;;;15.70;77.00;;;14.61;75.56;97694.38;4964448;28;20457;-84
2021/08/04 02:27:29;;;;;;;2.80;2.50;;;15.70;77.00;;;14.72;75.42;97726.91;4967606;28;20492;-85
2021/08/04 02:30:01;;;;;;;2.90;2.10;;;15.70;76.80;;;14.66;75.77;97711.56;4981879;28;20472;-85
2021/08/04 02:32:28;;;;;;;2.70;2.33;;;15.80;77.10;;;14.70;75.83;97706.44;4984930;28;20454;-85
2021/08/04 02:34:56;;;;;;;3.10;2.60;;;15.70;77.20;;;14.76;75.49;97720.97;4949802;28;20902;-85
2021/08/04 02:37:24;;;;;;;2.97;2.10;;;15.70;77.00;;;14.77;75.81;97709.00;4962979;28;20476;-85
2021/08/04 02:39:51;;;;;;;2.20;2.10;;;15.70;76.90;;;14.59;75.93;97681.00;4977394;28;20453;-85
2021/08/04 02:42:19;;;;;;;2.43;2.23;;;15.70;76.90;;;14.78;75.46;97705.22;4954551;29;20454;-86
2021/08/04 02:44:49;;;;;;;2.90;2.70;;;15.70;76.90;;;14.75;75.71;97703.00;4980536;28;20563;-84
2021/08/04 02:47:18;;;;;;;2.10;1.90;;;15.70;76.80;;;14.67;75.60;97691.47;4962169;28;20466;-84
2021/08/04 02:49:47;;;;;;;2.67;2.40;;;15.70;77.10;;;14.74;75.82;97704.91;4942830;28;20508;-84
2021/08/04 02:52:19;;;;;;;2.43;2.23;;;15.70;77.50;;;14.62;75.63;97694.09;4970071;28;20500;-84
2021/08/04 02:54:47;;;;;;;2.53;2.33;;;15.60;77.30;;;14.70;75.84;97717.31;4962590;28;20486;-84
2021/08/04 02:57:14;;;;;;;2.20;2.10;;;15.60;77.30;;;14.70;75.45;97712.72;4976230;28;20462;-85
2021/08/04 02:59:41;;;;;;;2.10;1.90;;;15.60;77.20;;;14.64;75.98;97702.00;4981730;28;20465;-85
2021/08/04 03:02:11;;;;;;;1.87;1.67;;;15.60;77.10;;;14.67;75.58;97713.22;4965392;28;20467;-85
2021/08/04 03:04:39;;;;;;;1.83;1.73;;;15.60;76.90;;;14.55;75.32;97698.91;4964934;28;20912;-85
2021/08/04 03:07:07;;;;;;;2.13;2.03;;;15.60;77.10;;;14.70;75.18;97718.16;4967119;28;20526;-85
2021/08/04 03:09:36;;;;;;;4.60;2.10;;;15.70;76.80;;;14.49;75.68;97695.28;4980862;28;20469;-86
2021/08/04 03:12:03;;;;;;;2.50;2.00;;;15.70;77.10;;;14.72;75.97;97732.34;4991229;28;20434;-84
2021/08/04 03:14:30;;;;;;;2.63;2.20;;;15.70;77.30;;;14.75;75.39;97738.34;4971779;28;20457;-84
2021/08/04 03:16:57;;;;;;;2.10;2.00;;;15.70;77.30;;;14.79;75.61;97725.94;4985568;28;20487;-84
2021/08/04 03:19:25;;;;;;;2.50;2.30;;;15.70;77.30;;;14.80;75.84;97735.72;4969761;28;20515;-85
2021/08/04 03:21:53;;;;;;;2.97;1.97;;;15.70;77.30;;;14.81;75.76;97742.81;4966276;28;20553;-84
2021/08/04 03:24:20;;;;;;;2.73;2.53;;;15.90;77.50;;;14.73;75.96;97725.03;4985114;28;20460;-85
2021/08/04 03:26:48;;;;;;;2.40;2.20;;;15.80;77.40;;;14.84;75.92;97736.88;4989395;28;20544;-84
2021/08/04 03:29:15;;;;;;;2.27;2.17;;;15.80;77.40;;;14.69;75.79;97715.66;4973362;28;20512;-85
2021/08/04 03:31:42;;;;;;;3.83;2.90;;;15.80;77.50;;;14.82;75.94;97736.28;4983830;28;20543;-84
2021/08/04 03:34:09;;;;;;;5.47;3.10;;;15.90;77.90;;;14.83;76.29;97737.94;4980590;28;20456;-85
2021/08/04 03:36:36;;;;;;;3.10;2.80;;;15.80;78.10;;;14.83;75.88;97729.78;4967431;28;20482;-84
2021/08/04 03:39:07;;;;;;;2.80;2.60;;;15.80;78.20;;;14.82;76.17;97736.28;4963886;28;20524;-84
2021/08/04 03:41:34;;;;;;;2.90;2.57;;;15.80;78.30;;;14.51;76.13;97689.59;4979535;28;20457;-85
2021/08/04 03:44:01;;;;;;;3.30;3.00;;;15.70;78.20;;;14.81;76.43;97731.94;4982965;28;20771;-85
2021/08/04 03:46:28;;;;;;;2.90;2.70;;;15.70;78.80;;;14.84;75.95;97734.16;4964142;28;20469;-84
2021/08/04 03:48:55;;;;;;;3.03;2.83;;;15.80;78.50;;;14.80;76.31;97722.94;4975537;28;20550;-85
2021/08/04 03:51:22;;;;;;;3.27;2.97;;;15.80;78.50;;;14.80;76.45;97724.84;4971725;28;20466;-84
2021/08/04 03:53:49;;;;;;;2.90;2.70;;;15.80;78.60;;;14.86;76.27;97738.28;4984742;28;20536;-85
2021/08/04 03:56:18;;;;;;;3.10;2.80;;;15.80;78.50;;;14.84;76.10;97734.16;4949622;28;20483;-84
2021/08/04 03:58:45;;;;;;;3.33;2.53;;;15.80;78.40;;;14.83;76.38;97740.66;4966005;28;20964;-83
2021/08/04 04:01:15;;;;;;;2.70;2.50;;;15.80;78.60;;;14.65;76.17;97706.38;4945799;28;20504;-84
2021/08/04 04:03:42;;;;;;;3.03;2.83;;;15.80;78.50;;;14.82;76.17;97736.28;4966452;28;20441;-84
2021/08/04 04:06:10;;;;;;;2.93;2.73;;;15.80;78.60;;;14.81;76.38;97742.81;4968252;28;20453;-84
2021/08/04 04:08:38;;;;;;;4.20;3.10;;;15.80;78.70;;;14.81;76.34;97742.81;4961050;28;20492;-84
2021/08/04 04:11:09;;;;;;;3.43;3.13;;;15.80;78.90;;;14.72;76.62;97720.66;4983995;28;20562;-84
2021/08/04 04:13:38;;;;;;;2.90;2.70;;;15.80;79.00;;;14.88;76.12;97740.72;4971357;28;20485;-86
2021/08/04 04:16:05;;;;;;;3.03;2.83;;;15.80;79.10;;;14.82;76.33;97744.47;4977492;28;20462;-85
2021/08/04 04:18:32;;;;;;;2.73;2.53;;;15.80;79.00;;;14.79;76.65;97731.38;4980303;28;20485;-84
2021/08/04 04:21:01;;;;;;;3.67;3.37;;;15.80;79.10;;;14.63;76.08;97694.94;4971239;28;20461;-85
2021/08/04 04:23:30;;;;;;;3.73;2.93;;;15.90;79.10;;;14.86;76.24;97741.00;4982133;28;20887;-84
2021/08/04 04:25:57;;;;;;;3.80;3.50;;;15.80;79.00;;;14.90;76.63;97744.00;4982415;28;20532;-84
2021/08/04 04:28:24;;;;;;;4.53;2.97;;;15.80;79.00;;;14.53;76.14;97687.44;4973305;28;20481;-84
2021/08/04 04:30:53;;;;;;;2.90;2.70;;;15.90;79.10;;;14.88;76.37;97740.72;4971133;28;20473;-84
2021/08/04 04:33:21;;;;;;;3.70;3.00;;;15.90;78.70;;;14.89;76.18;97726.06;4971286;28;21096;-84
2021/08/04 04:35:49;;;;;;;2.97;2.77;;;15.90;79.20;;;14.97;75.75;97733.78;4978203;28;20453;-84
2021/08/04 04:38:16;;;;;;;3.43;3.07;;;16.00;78.90;;;14.83;76.15;97722.44;4954316;28;20860;-84
2021/08/04 04:43:25;;;;;;;2.70;2.50;;;16.00;78.80;;;14.94;75.90;97734.31;4981199;28;20456;-84
2021/08/04 04:45:56;;;;;;;4.80;2.40;;;16.00;78.50;;;15.05;75.95;97739.84;4957445;28;20531;-84
2021/08/04 04:48:24;;;;;;;2.83;2.63;;;16.00;78.90;;;14.87;75.92;97722.75;4976666;28;20469;-84
2021/08/04 04:50:53;;;;;;;3.37;3.07;;;16.00;78.60;;;15.01;76.48;97748.53;4979885;28;20450;-84
2021/08/04 04:53:21;;;;;;;4.13;3.53;;;16.00;79.00;;;15.02;75.93;97744.72;4987018;28;20468;-85
2021/08/04 04:55:49;;;;;;;3.93;3.53;;;16.00;78.60;;;14.96;76.13;97734.03;4967191;28;20507;-85
2021/08/04 04:58:17;;;;;;;3.57;3.27;;;16.00;78.60;;;15.02;76.38;97731.13;4977142;28;20473;-83
2021/08/04 05:00:44;;;;;;;3.43;3.10;;;16.10;78.80;;;15.12;75.59;97740.50;4979307;28;20441;-85
2021/08/04 05:03:13;;;;;;;3.27;2.97;;;16.10;78.80;;;15.13;75.06;97747.59;4957911;28;20485;-84
2021/08/04 05:05:43;;;;;;;4.90;3.57;;;16.10;78.10;;;15.13;75.33;97742.16;4981994;28;20458;-85
2021/08/04 05:08:14;;;;;;;3.23;2.93;;;16.20;78.00;;;15.11;75.58;97761.44;4973335;28;20474;-85
2021/08/04 05:10:41;;;;;;;3.83;3.23;;;16.10;77.70;;;14.78;75.53;97702.50;4981151;28;20528;-85
2021/08/04 05:13:08;;;;;;;3.13;2.93;;;16.20;78.30;;;15.21;75.49;97766.19;4988829;28;20461;-83
2021/08/04 05:15:37;;;;;;;2.80;2.60;;;16.20;78.20;;;15.13;75.56;97742.16;4990138;28;20547;-84
2021/08/04 05:18:04;;;;;;;3.43;2.97;;;16.20;78.20;;;15.17;75.46;97748.72;4980720;28;20456;-84
2021/08/04 05:20:43;;;;;;;4.63;3.27;;;16.20;78.00;;;15.37;75.09;97763.66;4973190;28;20477;-86
2021/08/04 05:23:10;;;;;;;3.93;3.47;;;16.30;78.10;;;15.37;75.10;97758.22;4964375;28;20485;-86
2021/08/04 05:25:45;;;;;;;3.63;3.20;;;16.40;77.70;;;15.29;75.30;97745.88;4974225;28;20961;-86
2021/08/04 05:28:14;;;;;;;3.13;2.83;;;16.40;77.50;;;15.26;74.75;97747.22;4974671;28;20508;-87
2021/08/04 05:30:41;;;;;;;3.30;3.07;;;16.40;77.30;;;15.34;74.56;97734.25;4973222;28;20509;-84
2021/08/04 05:33:08;;;;;;;3.90;3.50;;;16.50;77.10;;;15.64;74.25;97769.19;4965062;28;20466;-83
2021/08/04 05:35:38;;;;;;;2.97;2.77;;;16.60;77.20;;;15.73;74.12;97764.13;4987576;28;20453;-84
2021/08/04 05:38:06;;;;;;;3.90;3.60;;;16.60;76.80;;;15.71;74.10;97774.44;4977827;28;20459;-84
2021/08/04 05:40:33;;;;;;;3.67;3.37;;;16.70;76.40;;;15.80;73.38;97767.44;4988511;28;20436;-84
2021/08/04 05:43:04;;;;;;;4.17;3.77;;;16.70;75.80;;;15.95;73.03;97766.00;4984850;28;20529;-84
2021/08/04 05:45:32;;;;;;;3.00;2.80;;;16.90;75.80;;;15.93;72.46;97760.81;4988058;28;22241;-84
2021/08/04 05:48:02;;;;;;;6.33;3.40;;;17.00;74.80;;;16.13;72.23;97757.44;4976505;28;20464;-85
2021/08/04 05:50:30;;;;;;;3.20;2.90;;;17.10;74.60;;;16.28;72.24;97773.13;4954738;28;20477;-85
2021/08/04 05:52:58;;;;;;;5.33;3.77;;;17.20;74.20;;;15.82;71.85;97701.84;4992205;28;20459;-85
2021/08/04 05:55:27;;;;;;;4.37;3.40;;;17.30;73.50;;;16.35;71.42;97767.47;4979677;28;20461;-84
2021/08/04 05:58:02;;;;;;;3.17;2.87;;;17.40;73.10;;;16.36;70.99;97757.38;4971063;28;20467;-88
2021/08/04 06:03:19;;;;;;;3.77;3.17;;;17.40;72.50;;;16.38;71.32;97756.06;4988155;28;20445;-88
2021/08/04 06:05:50;;;;;;;2.90;2.70;;;17.50;72.50;;;16.18;71.37;97729.44;4938684;29;20530;-90
2021/08/04 06:49:36;;;;;;;3.13;2.83;;;18.90;65.60;;;17.07;66.76;97704.44;5025064;28;20973;-85
2021/08/04 06:52:04;;;;;;;2.87;2.67;;;18.60;66.30;;;17.02;66.73;97736.31;5030211;28;20946;-87
2021/08/04 06:54:34;;;;;;;3.40;3.10;;;18.50;65.80;;;17.47;66.19;97769.59;5032622;28;20447;-87
2021/08/04 06:57:03;;;;;;;3.13;2.93;;;18.60;66.10;;;17.69;65.75;97778.41;4989583;28;20490;-86
2021/08/04 06:59:31;;;;;;;3.73;2.77;;;18.70;65.90;;;18.02;65.03;97772.78;5015689;28;20444;-78
2021/08/04 07:02:03;;;;;;;2.60;2.40;;;19.00;65.70;;;18.19;63.97;97780.72;5038816;28;20512;-89
2021/08/04 07:04:31;;;;;;;2.77;2.50;;;19.30;64.80;;;18.30;63.98;97769.81;5032404;28;20856;-83
2021/08/04 07:07:00;;;;;;;3.00;2.70;;;19.40;64.60;;;18.57;62.65;97755.88;5031408;28;20455;-81
2021/08/04 07:09:35;;;;;;;5.43;3.03;;;19.50;64.20;;;18.74;62.29;97765.72;5055754;28;20466;-81
2021/08/04 07:12:05;;;;;;;3.90;2.60;;;19.70;63.80;;;19.04;61.34;97775.03;5046400;28;20433;-84
2021/08/04 07:14:32;;;;;;;4.03;2.77;;;19.90;63.20;;;19.00;61.03;97752.03;5029480;28;20488;-83
2021/08/04 07:17:10;;;;;;;3.10;2.73;;;20.20;62.60;;;19.44;59.36;97759.56;5040139;28;20459;-80
2021/08/04 07:19:37;;;;;;;2.97;2.77;;;20.40;61.80;;;19.60;59.25;97778.66;5030025;28;20474;-81
2021/08/04 07:22:05;;;;;;;3.07;2.77;;;20.60;61.40;;;19.72;59.03;97776.44;5041788;28;20869;-80
2021/08/04 07:24:32;;;;;;;3.53;3.23;;;20.90;61.20;;;19.29;60.23;97763.19;5024449;28;20442;-80
2021/08/04 07:27:00;;;;;;;3.10;2.80;;;20.60;61.00;;;19.70;59.62;97764.94;5041460;28;20537;-81
2021/08/04 07:29:27;;;;;;;2.63;2.47;;;20.70;61.30;;;19.01;60.41;97772.81;5035621;28;20483;-80
2021/08/04 07:31:56;;;;;;;3.57;3.27;;;20.30;60.60;;;18.58;61.83;97775.84;5019784;28;21014;-81
2021/08/04 07:34:24;;;;;;;3.07;2.77;;;19.70;61.20;;;18.40;62.03;97767.09;5016892;28;21248;-80
2021/08/04 07:36:54;;;;;;;2.77;2.57;;;19.60;61.40;;;18.51;62.20;97776.13;5028444;28;20470;-82
2021/08/04 07:39:22;;;;;;;4.63;2.57;;;19.60;61.90;;;19.11;60.36;97778.28;5033999;28;20467;-84
2021/08/04 07:41:49;;;;;;;3.33;2.10;;;19.90;61.70;;;19.65;59.16;97764.97;5034644;28;20514;-81
2021/08/04 07:44:16;;;;;;;2.53;2.10;;;20.30;61.20;;;19.68;59.33;97758.91;5026387;28;20467;-79
2021/08/04 07:46:43;;;;;;;3.60;2.90;;;20.50;61.00;;;19.15;59.11;97734.75;5029407;28;20554;-79
2021/08/04 07:49:11;;;;;;;4.37;2.57;;;20.60;60.00;;;19.17;60.64;97770.88;5021319;28;20618;-82
2021/08/04 07:51:40;;;;;;;2.87;2.47;;;20.40;60.90;;;18.72;59.60;97737.78;5025314;28;20482;-82
2021/08/04 07:54:07;;;;;;;3.40;2.97;;;20.10;59.80;;;18.45;61.03;97756.16;5016591;28;20472;-79
2021/08/04 07:56:36;;;;;;;3.30;2.87;;;20.00;60.60;;;18.29;62.50;97769.00;5018038;28;20462;-80
2021/08/04 07:59:04;;;;;;;3.33;3.10;;;19.50;61.50;;;18.92;60.50;97751.47;4999072;28;20456;-82
2021/08/04 08:01:32;;;;;;;2.60;2.40;;;19.90;61.30;;;19.33;59.23;97763.41;5014640;28;20452;-79
2021/08/04 08:03:59;;;;;;;3.30;2.90;;;20.40;60.50;;;19.76;58.10;97761.03;5015959;28;20523;-79
2021/08/04 08:06:29;;;;;;;6.10;2.77;;;20.80;60.20;;;20.44;55.93;97775.19;5017394;28;20516;-88
2021/08/04 08:09:00;;;;;;;2.70;2.50;;;21.40;59.30;;;20.54;55.14;97766.03;5001277;28;20470;-89
2021/08/04 08:11:28;;;;;;;3.00;2.53;;;21.70;58.50;;;20.31;55.15;97754.72;5001456;28;20451;-89
2021/08/04 08:13:55;;;;;;;2.70;2.50;;;21.70;57.80;;;20.78;53.56;97751.56;5003214;28;20452;-88
2021/08/04 08:16:26;;;;;;;3.80;2.50;;;21.90;57.50;;;20.83;53.67;97751.56;5023732;28;20867;-87
2021/08/04 08:18:57;;;;;;;2.40;2.20;;;22.10;57.80;;;20.65;55.22;97769.53;5020834;28;20455;-87
2021/08/04 08:21:25;;;;;;;2.80;2.60;;;22.00;57.70;;;20.65;53.53;97759.38;4988108;28;20455;-88
2021/08/04 08:23:55;;;;;;;2.80;2.60;;;22.00;57.10;;;21.17;52.89;97775.41;5030459;28;20458;-88
2021/08/04 08:26:25;;;;;;;3.00;2.80;;;22.20;56.80;;;20.70;52.29;97705.53;5019765;28;20966;-88
2021/08/04 08:28:56;;;;;;;4.00;3.50;;;21.80;56.30;;;19.93;55.17;97777.16;4997584;28;20542;-87
2021/08/04 08:31:23;;;;;;;4.40;2.90;;;21.30;56.50;;;19.71;56.68;97763.00;5017662;28;20542;-87
2021/08/04 08:33:54;;;;;;;5.60;2.50;;;20.90;57.50;;;19.65;56.29;97759.47;5005492;28;20522;-88
2021/08/04 08:36:21;;;;;;;2.70;2.50;;;20.90;58.00;;;19.36;56.17;97697.94;5006774;28;20521;-86
2021/08/04 08:38:50;;;;;;;2.80;2.60;;;21.00;57.50;;;19.92;55.75;97763.72;5017569;28;20967;-88
2021/08/04 08:41:17;;;;;;;2.60;2.40;;;21.00;57.20;;;19.70;55.53;97753.97;5026506;28;20443;-80
2021/08/04 08:43:47;;;;;;;3.70;2.80;;;21.00;57.10;;;18.96;57.20;97744.34;5023284;28;21005;-78
2021/08/04 08:46:16;;;;;;;2.83;2.63;;;20.30;57.30;;;19.28;55.39;97771.66;5019513;28;20456;-79
2021/08/04 08:48:47;;;;;;;2.60;2.40;;;20.30;56.70;;;18.90;55.54;97756.41;5015964;28;20469;-79
2021/08/04 08:51:25;;;;;;;2.80;2.60;;;20.00;56.60;;;18.83;56.67;97753.13;5017176;28;20455;-82
2021/08/04 08:53:53;;;;;;;2.80;2.60;;;20.00;57.30;;;19.54;55.59;97765.00;5018724;28;20929;-81
2021/08/04 08:56:22;;;;;;;2.83;2.63;;;20.40;57.20;;;19.68;55.88;97739.72;5006533;28;20563;-81
2021/08/04 08:58:57;;;;;;;3.13;2.47;;;20.70;57.40;;;19.87;54.88;97753.63;5004968;28;20451;-84
2021/08/04 09:01:37;;;;;;;3.37;3.07;;;21.00;56.90;;;20.31;54.97;97759.38;4999982;28;20819;-83
2021/08/04 09:04:10;;;;;;;3.50;2.33;;;21.10;57.40;;;20.86;52.89;97752.91;5027178;28;20535;-82
2021/08/04 09:06:46;;;;;;;4.70;2.77;;;21.60;57.00;;;20.29;54.14;97734.16;5025130;28;20919;-82
2021/08/04 09:09:20;;;;;;;2.47;2.17;;;21.50;56.50;;;20.70;53.70;97744.78;5022048;28;20475;-81
2021/08/04 09:11:52;;;;;;;3.40;2.93;;;21.60;56.60;;;21.05;52.69;97750.25;4995574;28;20454;-84
2021/08/04 09:14:47;;;;;;;6.37;2.80;;;22.00;56.50;;;21.06;51.65;97760.13;5016718;28;20554;-82
2021/08/04 09:17:18;;;;;;;2.53;2.33;;;21.70;55.70;;;20.79;52.89;97753.22;5001217;28;20494;-83
2021/08/04 09:19:48;;;;;;;3.30;2.53;;;21.60;56.30;;;20.53;52.70;97745.19;5002744;28;20455;-81
2021/08/04 09:22:22;;;;;;;2.60;2.40;;;21.50;55.90;;;20.47;52.37;97735.38;4996105;28;20459;-80
2021/08/04 09:25:08;;;;;;;3.70;2.73;;;21.30;55.70;;;20.32;53.00;97728.91;5017054;28;20454;-82
2021/08/04 09:27:45;;;;;;;3.07;2.77;;;21.40;55.90;;;20.32;53.02;97717.94;5016987;28;20564;-82
2021/08/04 09:30:22;;;;;;;2.50;2.30;;;21.40;55.70;;;20.68;51.31;97719.56;5017378;28;20489;-83
2021/08/04 09:32:51;;;;;;;2.67;2.47;;;21.70;55.30;;;20.38;52.67;97727.75;5019167;28;20502;-82
2021/08/04 09:35:22;;;;;;;2.50;2.30;;;21.70;55.40;;;20.37;52.55;97731.63;5022877;28;20498;-79
2021/08/04 09:37:53;;;;;;;2.50;2.30;;;21.50;55.60;;;20.52;53.15;97743.56;4997311;28;20982;-83
2021/08/04 09:40:22;;;;;;;2.80;2.60;;;21.50;55.70;;;20.66;52.42;97743.75;5012816;28;20456;-83
2021/08/04 09:42:54;;;;;;;2.33;2.13;;;21.50;55.60;;;20.26;52.40;97727.34;5018059;28;20463;-83
2021/08/04 09:45:43;;;;;;;5.57;2.90;;;21.50;55.30;;;20.21;53.49;97741.06;5014738;28;21029;-84
2021/08/04 09:48:16;;;;;;;2.77;2.57;;;21.30;55.50;;;19.98;53.82;97743.44;5023298;28;20450;-84
2021/08/04 09:50:48;;;;;;;3.40;2.50;;;21.00;55.40;;;19.93;54.61;97732.47;5019653;28;20532;-85
2021/08/04 09:53:21;;;;;;;2.80;2.60;;;21.00;56.00;;;19.90;54.73;97739.34;5018239;28;20463;-85
2021/08/04 09:56:14;;;;;;;3.43;2.50;;;21.00;56.20;;;20.19;54.06;97724.09;5015025;28;20559;-85
2021/08/04 09:58:46;;;;;;;3.67;2.70;;;21.00;56.60;;;19.98;55.04;97724.25;4980707;28;20459;-85
2021/08/04 10:01:21;;;;;;;3.50;2.53;;;20.90;56.60;;;19.90;55.24;97744.81;5020747;28;20455;-85
2021/08/04 10:04:04;;;;;;;3.13;2.80;;;20.90;56.70;;;19.74;56.17;97746.81;5021583;28;20443;-85
2021/08/04 10:06:36;;;;;;;3.00;2.70;;;20.70;56.90;;;19.33;56.05;97687.56;5003557;28;20452;-86
2021/08/04 10:09:14;;;;;;;2.60;2.40;;;20.70;56.80;;;19.99;55.61;97750.56;5006806;28;20487;-81
2021/08/04 10:11:44;;;;;;;3.33;3.03;;;20.80;56.90;;;19.89;55.91;97745.09;5017472;28;20451;-83
2021/08/04 10:14:14;;;;;;;3.60;2.93;;;20.80;57.00;;;19.99;55.57;97742.31;5021204;28;20440;-83
2021/08/04 10:16:48;;;;;;;2.60;2.40;;;20.90;57.10;;;20.05;55.70;97738.44;4997536;28;20443;-88
2021/08/04 10:19:17;;;;;;;3.30;2.80;;;20.90;57.10;;;19.74;55.47;97735.03;4991902;28;20448;-87
2021/08/04 10:21:55;;;;;;;3.07;2.87;;;20.90;56.80;;;19.94;55.24;97728.63;4985808;28;20463;-87
2021/08/04 10:24:34;;;;;;;7.07;3.27;;;21.00;57.10;;;19.79;55.58;97715.81;5025121;28;20430;-86
2021/08/04 10:27:05;;;;;;;3.00;2.80;;;21.00;56.90;;;19.53;55.65;97664.72;5038572;28;20481;-86
2021/08/04 10:29:34;;;;;;;3.20;2.87;;;21.00;57.00;;;19.96;56.02;97740.16;5009788;28;20546;-86
2021/08/04 10:32:08;;;;;;;5.00;3.00;;;20.90;57.20;;;19.30;56.57;97676.34;5002554;28;20520;-86
2021/08/04 10:34:41;;;;;;;5.10;3.00;;;20.80;57.10;;;19.06;56.72;97611.31;4987481;28;20471;-86
2021/08/04 10:37:13;;;;;;;4.23;2.93;;;20.80;57.50;;;19.51;57.93;97749.13;5003160;28;20507;-86
2021/08/04 10:39:40;;;;;;;3.00;2.60;;;20.70;57.60;;;19.62;58.40;97743.56;5011622;28;20465;-86
2021/08/04 10:42:12;;;;;;;3.53;2.70;;;20.60;58.00;;;19.35;59.05;97692.78;5005751;28;20459;-86
2021/08/04 10:44:44;;;;;;;3.67;3.37;;;20.70;58.40;;;19.76;58.40;97750.09;5015898;28;20497;-87
2021/08/04 10:47:51;;;;;;;3.50;3.20;;;20.70;58.40;;;19.37;58.50;97687.84;5005823;28;20451;-86
2021/08/04 10:50:21;;;;;;;3.00;2.57;;;20.80;58.50;;;19.65;58.40;97701.94;5015142;28;20474;-85
2021/08/04 10:53:07;;;;;;;4.43;2.97;;;21.00;58.40;;;20.58;55.52;97706.75;5008074;28;20646;-85
2021/08/04 10:55:57;;;;;;;3.63;2.60;;;21.50;57.90;;;20.83;54.64;97676.63;5007454;28;20513;-86
2021/08/04 10:58:26;;;;;;;2.77;2.57;;;21.90;57.40;;;20.88;52.34;97640.88;5003215;28;20451;-85
2021/08/04 11:00:58;;;;;;;3.03;2.60;;;22.20;56.30;;;21.31;52.06;97736.25;4985744;28;20459;-86
2021/08/04 11:03:49;;;;;;;3.20;2.50;;;22.20;55.90;;;21.39;50.87;97708.09;5004136;28;20487;-87
2021/08/04 11:06:17;;;;;;;3.90;1.80;;;22.20;55.50;;;21.54;49.98;97698.84;5015003;28;20582;-86
2021/08/04 11:08:50;;;;;;;3.60;2.23;;;22.50;55.20;;;22.11;49.25;97722.78;5000483;28;20896;-84
2021/08/04 11:11:57;;;;;;;2.70;2.30;;;22.90;54.90;;;22.32;48.02;97723.28;5000340;28;20501;-85
2021/08/04 11:14:41;;;;;;;2.30;2.10;;;23.40;54.30;;;22.73;47.86;97712.75;5000858;28;20466;-85
2021/08/04 11:17:11;;;;;;;2.50;2.30;;;23.60;54.00;;;22.66;48.05;97704.88;5014614;28;20467;-84
2021/08/04 11:20:13;;;;;;;2.73;2.20;;;23.80;53.70;;;22.56;47.16;97636.22;5019684;28;20486;-85
2021/08/04 11:22:59;;;;;;;6.13;2.30;;;23.90;53.60;;;23.16;45.78;97675.84;5017318;28;20490;-85